KLHB/LHB METAR and TAF weather

Enter ICAO airport designator
Station Type Date Time Source
KLHB METAR 2022/07/03 14:55 UTC NOAA

KLHB 031455Z AUTO 22007KT 10SM SCT025 31/23 A3005 RMK AO2 T03070227


Station Type Date Time Source
KLHB Decoded METAR 2022/07/03 14:55 UTC NOAA

Hearne, Hearne Municipal Airport, TX, United States (KLHB) 30-52-18N 096-37-20W
Jul 03, 2022 - 10:55 AM EDT / 2022.07.03 1455 UTC
Wind: from the SW (220 degrees) at 8 MPH (7 KT):0
Visibility: 10 mile(s):0
Sky conditions: partly cloudy
Temperature: 87.3 F (30.7 C)
Heat index: 94.5 F (34.7 C):1
Dew Point: 72.9 F (22.7 C)
Relative Humidity: 62%
Pressure (altimeter): 30.05 in. Hg (1017 hPa)
ob: KLHB 031455Z AUTO 22007KT 10SM SCT025 31/23 A3005 RMK AO2 T03070227
cycle: 15

Station Type Date Time Source
KLHB TAF UTC NOAA

Error!

Example: see airport list